createdAt,value
2019-05-06T00:00:56.423Z,0.4891
2019-05-06T00:01:55.817Z,0.5184
2019-05-06T00:02:58.204Z,0.4463
2019-05-06T00:04:01.850Z,0.5184
2019-05-06T00:05:04.788Z,0.4623
2019-05-06T00:06:07.798Z,0.4757
2019-05-06T00:07:10.876Z,0.4330
2019-05-06T00:08:14.462Z,0.4063
2019-05-06T00:09:17.914Z,0.5184
2019-05-06T00:10:21.435Z,0.5451
2019-05-06T00:11:24.873Z,0.5745
2019-05-06T00:12:27.919Z,0.5184
2019-05-06T00:13:31.882Z,0.5745
2019-05-06T00:14:34.227Z,0.5745
2019-05-06T00:15:37.938Z,0.5318
2019-05-06T00:16:40.832Z,0.5451
2019-05-06T00:17:44.539Z,0.5879
2019-05-06T00:18:47.953Z,0.5184
2019-05-06T00:19:54.040Z,0.5024
2019-05-06T00:20:59.935Z,0.5024
2019-05-06T00:22:04.731Z,0.5184
2019-05-06T00:23:08.881Z,0.4891
2019-05-06T00:24:14.552Z,0.4623
2019-05-06T00:25:17.883Z,0.4463
2019-05-06T00:26:21.067Z,0.3903
2019-05-06T00:27:24.868Z,0.4463
2019-05-06T00:28:28.140Z,0.4757
2019-05-06T00:29:31.903Z,0.4196
2019-05-06T00:30:35.980Z,0.3769
2019-05-06T00:31:39.856Z,0.3635
2019-05-06T00:32:44.275Z,0.3635
2019-05-06T00:33:48.183Z,0.4063
2019-05-06T00:34:51.261Z,0.4196
2019-05-06T00:35:54.910Z,0.4891
2019-05-06T00:36:58.870Z,0.4757
2019-05-06T00:38:01.835Z,0.4757
2019-05-06T00:39:04.859Z,0.4623
2019-05-06T00:40:07.211Z,0.4196
2019-05-06T00:41:10.184Z,0.4330
2019-05-06T00:42:13.924Z,0.5024
2019-05-06T00:43:17.192Z,0.3769
2019-05-06T00:44:20.170Z,0.4063
2019-05-06T00:45:24.404Z,0.4891
2019-05-06T00:46:27.181Z,0.4623
2019-05-06T00:47:30.833Z,0.4463
2019-05-06T00:48:34.271Z,0.4063
2019-05-06T00:49:37.815Z,0.5318
2019-05-06T00:50:40.900Z,0.4891
2019-05-06T00:51:44.185Z,0.5745
2019-05-06T00:52:47.864Z,0.6439
2019-05-06T00:53:50.857Z,0.8122
2019-05-06T00:54:54.790Z,0.7160
2019-05-06T00:55:58.890Z,0.6733
2019-05-06T00:57:03.621Z,0.6733
2019-05-06T00:58:06.923Z,0.6439
2019-05-06T00:59:10.929Z,0.5879
2019-05-06T01:00:14.909Z,0.6439
2019-05-06T01:01:28.640Z,0.6172
2019-05-06T01:02:26.928Z,0.6172
2019-05-06T01:03:30.188Z,0.5879
2019-05-06T01:04:34.045Z,0.5879
2019-05-06T01:05:37.937Z,0.5745
2019-05-06T01:06:43.860Z,0.5024
2019-05-06T01:07:47.843Z,0.5184
2019-05-06T01:08:50.837Z,0.5024
2019-05-06T01:09:54.245Z,0.5879
2019-05-06T01:10:57.928Z,0.4757
2019-05-06T01:12:03.737Z,0.5318
2019-05-06T01:13:06.825Z,0.4623
2019-05-06T01:14:09.915Z,0.3903
2019-05-06T01:15:14.283Z,0.3182
2019-05-06T01:16:22.191Z,0.2193
2019-05-06T01:17:25.197Z,0.2487
2019-05-06T01:18:27.212Z,0.2888
2019-05-06T01:19:30.208Z,0.3048
2019-05-06T01:20:33.973Z,0.2754
2019-05-06T01:21:37.186Z,0.2888
2019-05-06T01:22:40.189Z,0.2487
2019-05-06T01:23:43.709Z,0.1499
2019-05-06T01:24:47.230Z,0.2487
2019-05-06T01:25:50.199Z,0.2060
2019-05-06T01:26:53.849Z,0.2487
2019-05-06T01:27:56.835Z,0.2621
2019-05-06T01:28:59.821Z,0.2888
2019-05-06T01:30:04.401Z,0.2487
2019-05-06T01:31:07.766Z,0.2327
2019-05-06T01:32:10.941Z,0.2487
2019-05-06T01:33:14.901Z,0.1633
2019-05-06T01:34:18.384Z,0.2888
2019-05-06T01:35:21.846Z,0.3635
2019-05-06T01:36:26.916Z,0.3342
2019-05-06T01:37:49.935Z,0.3182
2019-05-06T01:38:53.796Z,0.3048
2019-05-06T01:39:56.878Z,0.2888
2019-05-06T01:41:00.979Z,0.2621
2019-05-06T01:42:04.820Z,0.3342
2019-05-06T01:43:07.191Z,0.3903
2019-05-06T01:44:10.863Z,0.3769
2019-05-06T01:45:15.166Z,0.4196
2019-05-06T01:46:18.863Z,0.4757
2019-05-06T01:47:23.793Z,0.4757
2019-05-06T01:48:27.436Z,0.5024
2019-05-06T01:49:30.203Z,0.5611
2019-05-06T01:50:34.443Z,0.5451
2019-05-06T01:51:37.179Z,0.5184
2019-05-06T01:52:40.187Z,0.4757
2019-05-06T01:53:44.783Z,0.4891
2019-05-06T01:54:47.265Z,0.5024
2019-05-06T01:55:50.802Z,0.4623
2019-05-06T01:56:53.863Z,0.5184
2019-05-06T01:57:57.027Z,0.5184
2019-05-06T01:59:00.820Z,0.5451
2019-05-06T02:00:04.843Z,0.5611
2019-05-06T02:01:08.950Z,0.5318
2019-05-06T02:02:14.344Z,0.5318
2019-05-06T02:03:17.861Z,0.5024
2019-05-06T02:04:20.908Z,0.4623
2019-05-06T02:05:24.901Z,0.4196
2019-05-06T02:06:28.228Z,0.4757
2019-05-06T02:07:31.843Z,0.4623
2019-05-06T02:08:34.961Z,0.4463
2019-05-06T02:09:38.872Z,0.4463
2019-05-06T02:10:43.583Z,0.4463
2019-05-06T02:11:48.128Z,0.4623
2019-05-06T02:12:50.190Z,0.4891
2019-05-06T02:13:53.951Z,0.4891
2019-05-06T02:14:57.914Z,0.4463
2019-05-06T02:16:03.889Z,0.4063
2019-05-06T02:17:07.940Z,0.3903
2019-05-06T02:18:11.171Z,0.3635
2019-05-06T02:19:14.960Z,0.3903
2019-05-06T02:20:18.864Z,0.3342
2019-05-06T02:21:24.530Z,0.3182
2019-05-06T02:22:29.866Z,0.1926
2019-05-06T02:23:33.865Z,0.2193
2019-05-06T02:24:37.854Z,0.2327
2019-05-06T02:25:40.902Z,0.2754
2019-05-06T02:26:44.525Z,0.2754
2019-05-06T02:27:47.864Z,0.2754
2019-05-06T02:28:51.288Z,0.3182
2019-05-06T02:29:54.382Z,0.3502
2019-05-06T02:30:57.201Z,0.3635
2019-05-06T02:32:16.049Z,0.3769
2019-05-06T02:33:08.210Z,0.3769
2019-05-06T02:34:11.191Z,0.3635
2019-05-06T02:35:14.940Z,0.3769
2019-05-06T02:36:18.203Z,0.3769
2019-05-06T02:37:21.185Z,0.3769
2019-05-06T02:38:33.267Z,0.3342
2019-05-06T02:39:34.125Z,0.3769
2019-05-06T02:40:37.862Z,0.3903
2019-05-06T02:41:39.880Z,0.4063
2019-05-06T02:42:47.909Z,0.4063
2019-05-06T02:43:54.168Z,0.4063
2019-05-06T02:44:58.118Z,0.4196
2019-05-06T02:46:03.950Z,0.4063
2019-05-06T02:47:06.818Z,0.4063
2019-05-06T02:48:09.852Z,0.4063
2019-05-06T02:49:13.308Z,0.4463
2019-05-06T02:50:18.073Z,0.4196
2019-05-06T02:51:24.364Z,0.4330
2019-05-06T02:52:27.866Z,0.3769
2019-05-06T02:53:33.409Z,0.3903
2019-05-06T02:54:36.867Z,0.4063
2019-05-06T02:55:42.830Z,0.3502
2019-05-06T02:56:46.826Z,0.2754
2019-05-06T02:57:49.200Z,0.2621
2019-05-06T02:58:53.698Z,0.2621
2019-05-06T02:59:58.215Z,0.2327
2019-05-06T03:01:03.554Z,0.3048
2019-05-06T03:02:06.196Z,0.3048
2019-05-06T03:03:09.881Z,0.2888
2019-05-06T03:04:13.172Z,0.2754
2019-05-06T03:05:16.194Z,0.2487
2019-05-06T03:06:19.315Z,0.2621
2019-05-06T03:07:23.329Z,0.2487
2019-05-06T03:08:26.193Z,0.2327
2019-05-06T03:09:29.245Z,0.2060
2019-05-06T03:10:33.008Z,0.1926
2019-05-06T03:11:36.204Z,0.1926
2019-05-06T03:12:39.200Z,0.1926
2019-05-06T03:13:43.703Z,0.2193
2019-05-06T03:14:47.849Z,0.2060
2019-05-06T03:15:53.749Z,0.1766
2019-05-06T03:16:57.802Z,0.1633
2019-05-06T03:18:03.204Z,0.1926
2019-05-06T03:19:06.908Z,0.1633
2019-05-06T03:20:13.215Z,0.1339
2019-05-06T03:21:16.819Z,0.1339
2019-05-06T03:22:19.939Z,0.0511
2019-05-06T03:23:23.806Z,0.0645
2019-05-06T03:24:26.943Z,0.0217
2019-05-06T03:25:33.138Z,0.0217
2019-05-06T03:26:36.853Z,-0.0050
2019-05-06T03:27:39.936Z,-0.0343
2019-05-06T03:28:44.266Z,-0.0610
2019-05-06T03:29:47.938Z,-0.0904
2019-05-06T03:30:56.185Z,-0.1171
2019-05-06T03:31:59.939Z,-0.1598
2019-05-06T03:34:35.249Z,-0.1598
2019-05-06T03:35:40.400Z,-0.1331
2019-05-06T03:36:34.637Z,-0.1331
2019-05-06T03:37:38.196Z,-0.1038
2019-05-06T03:38:43.131Z,-0.0771
2019-05-06T03:39:47.009Z,-0.0904
2019-05-06T03:40:53.546Z,-0.0904
2019-05-06T03:41:56.231Z,-0.0771
2019-05-06T03:43:02.635Z,-0.0771
2019-05-06T03:44:05.208Z,-0.0343
2019-05-06T03:45:08.200Z,-0.0183
2019-05-06T03:46:13.979Z,0.0217
2019-05-06T03:47:18.040Z,0.0511
2019-05-06T03:48:23.754Z,0.0778
2019-05-06T03:49:27.818Z,0.0378
2019-05-06T03:50:33.500Z,0.0378
2019-05-06T03:51:36.187Z,0.0084
2019-05-06T03:52:42.900Z,0.0511
2019-05-06T03:53:46.891Z,0.0938
2019-05-06T03:54:50.211Z,0.1072
2019-05-06T03:55:54.112Z,0.1205
2019-05-06T03:56:57.900Z,0.1072
2019-05-06T03:58:03.904Z,0.1205
2019-05-06T03:59:07.872Z,0.1633
2019-05-06T04:00:13.279Z,0.2193
2019-05-06T04:01:18.903Z,0.1926
2019-05-06T04:02:24.004Z,0.2193
2019-05-06T04:03:42.427Z,0.1766
2019-05-06T04:04:35.891Z,0.1339
2019-05-06T04:05:39.918Z,0.1766
2019-05-06T04:06:43.910Z,0.2621
2019-05-06T04:07:48.016Z,0.2621
2019-05-06T04:08:52.899Z,0.2621
2019-05-06T04:09:56.981Z,0.2888
2019-05-06T04:11:03.165Z,0.2754
2019-05-06T04:12:06.874Z,0.3048
2019-05-06T04:13:09.876Z,0.3048
2019-05-06T04:14:14.216Z,0.3182
2019-05-06T04:15:17.204Z,0.3048
2019-05-06T04:16:22.788Z,0.3048
2019-05-06T04:17:27.191Z,0.3182
2019-05-06T04:18:33.185Z,0.3502
2019-05-06T04:19:36.800Z,0.3502
2019-05-06T04:20:39.837Z,0.3635
2019-05-06T04:21:43.643Z,0.4063
2019-05-06T04:22:46.869Z,0.4063
2019-05-06T04:23:53.202Z,0.4196
2019-05-06T04:24:55.886Z,0.4463
2019-05-06T04:25:59.927Z,0.4330
2019-05-06T04:27:03.962Z,0.4463
2019-05-06T04:28:06.834Z,0.4623
2019-05-06T04:29:08.172Z,0.4757
2019-05-06T04:30:13.575Z,0.5318
2019-05-06T04:31:16.910Z,0.4891
2019-05-06T04:32:23.363Z,0.5318
2019-05-06T04:33:26.863Z,0.5451
2019-05-06T04:34:29.893Z,0.5745
2019-05-06T04:35:33.921Z,0.5611
2019-05-06T04:36:37.886Z,0.5879
2019-05-06T04:37:42.945Z,0.6573
2019-05-06T04:38:46.890Z,0.6439
2019-05-06T04:39:52.965Z,0.6867
2019-05-06T04:40:57.784Z,0.7294
2019-05-06T04:42:03.463Z,0.7294
2019-05-06T04:43:06.550Z,0.7294
2019-05-06T04:44:13.548Z,0.7427
2019-05-06T04:45:17.955Z,0.7721
2019-05-06T04:46:23.664Z,0.7427
2019-05-06T04:47:27.146Z,0.7721
2019-05-06T04:48:32.960Z,0.7721
2019-05-06T04:49:36.854Z,0.7721
2019-05-06T04:50:39.869Z,0.7561
2019-05-06T04:51:43.426Z,0.7427
2019-05-06T04:52:46.768Z,0.7427
2019-05-06T04:53:53.426Z,0.7000
2019-05-06T04:54:57.747Z,0.8415
2019-05-06T04:56:03.852Z,0.8549
2019-05-06T04:57:07.215Z,0.8415
2019-05-06T04:58:13.140Z,0.7988
2019-05-06T04:59:17.821Z,0.7988
2019-05-06T05:00:20.158Z,0.7721
2019-05-06T05:01:23.847Z,0.7721
2019-05-06T05:02:26.814Z,0.7294
2019-05-06T05:03:29.176Z,0.7427
2019-05-06T05:04:35.793Z,0.7427
2019-05-06T05:05:40.096Z,0.8122
2019-05-06T05:06:43.819Z,0.8976
2019-05-06T05:07:46.979Z,0.8843
2019-05-06T05:08:50.194Z,0.8415
2019-05-06T05:09:53.867Z,0.8122
2019-05-06T05:10:56.860Z,0.8976
2019-05-06T05:12:02.495Z,0.8976
2019-05-06T05:13:05.862Z,0.7988
2019-05-06T05:14:08.849Z,0.8682
2019-05-06T05:15:12.012Z,0.8415
2019-05-06T05:16:15.955Z,0.8282
2019-05-06T05:17:19.910Z,0.8976
2019-05-06T05:18:22.798Z,0.8549
2019-05-06T05:19:25.873Z,0.8682
2019-05-06T05:20:38.239Z,0.8682
2019-05-06T05:21:36.893Z,0.8682
2019-05-06T05:22:42.225Z,0.8549
2019-05-06T05:23:46.082Z,0.7988
2019-05-06T05:24:51.941Z,0.7855
2019-05-06T05:25:55.869Z,0.7000
2019-05-06T05:27:00.076Z,0.6867
2019-05-06T05:28:03.903Z,0.6867
2019-05-06T05:29:06.975Z,0.7000
2019-05-06T05:30:12.430Z,0.6733
2019-05-06T05:31:15.873Z,0.6573
2019-05-06T05:32:18.939Z,0.6573
2019-05-06T05:33:22.828Z,0.7000
2019-05-06T05:34:37.105Z,0.7427
2019-05-06T05:35:33.934Z,0.7427
2019-05-06T05:36:37.899Z,0.8122
2019-05-06T05:37:41.961Z,0.7855
2019-05-06T05:38:46.352Z,0.7721
2019-05-06T05:39:49.217Z,0.7988
2019-05-06T05:40:52.507Z,0.8415
2019-05-06T05:41:55.209Z,0.8282
2019-05-06T05:42:58.196Z,0.8549
2019-05-06T05:44:02.395Z,0.9110
2019-05-06T05:45:05.185Z,0.9537
2019-05-06T05:46:08.198Z,0.9831
2019-05-06T05:47:12.382Z,1.0658
2019-05-06T05:48:15.746Z,1.0952
2019-05-06T05:49:21.617Z,1.1246
2019-05-06T05:50:25.190Z,1.1673
2019-05-06T05:51:29.234Z,1.2234
2019-05-06T05:52:32.910Z,1.2234
2019-05-06T05:53:36.171Z,1.2955
2019-05-06T05:54:39.187Z,1.3355
2019-05-06T05:55:42.437Z,1.4076
2019-05-06T05:56:45.957Z,1.4076
2019-05-06T05:57:49.284Z,1.4076
2019-05-06T05:58:54.381Z,1.5892
2019-05-06T05:59:57.845Z,1.6613
2019-05-06T06:01:00.797Z,1.7014
2019-05-06T06:02:04.095Z,1.7441
2019-05-06T06:03:07.497Z,1.8429
2019-05-06T06:04:12.876Z,1.9444
2019-05-06T06:05:16.882Z,2.0298
2019-05-06T06:06:22.129Z,2.0005
2019-05-06T06:07:25.802Z,2.0138
2019-05-06T06:08:29.040Z,2.0859
2019-05-06T06:09:32.882Z,2.0993
2019-05-06T06:10:37.020Z,2.1126
2019-05-06T06:11:42.966Z,2.0565
2019-05-06T06:12:47.535Z,2.0565
2019-05-06T06:13:52.283Z,2.0298
2019-05-06T06:14:56.422Z,2.1553
2019-05-06T06:15:59.908Z,2.2248
2019-05-06T06:17:04.000Z,2.2835
2019-05-06T06:18:07.934Z,2.2541
2019-05-06T06:19:12.689Z,2.3102
2019-05-06T06:20:15.850Z,2.3396
2019-05-06T06:21:25.661Z,2.3957
2019-05-06T06:22:27.019Z,2.4784
2019-05-06T06:23:32.408Z,2.5078
2019-05-06T06:24:35.850Z,2.5505
2019-05-06T06:25:38.869Z,2.5212
2019-05-06T06:26:42.972Z,2.4945
2019-05-06T06:27:46.371Z,2.5505
2019-05-06T06:28:52.131Z,2.5906
2019-05-06T06:29:55.748Z,2.6333
2019-05-06T06:30:58.176Z,2.5078
2019-05-06T06:32:03.134Z,2.6333
2019-05-06T06:33:06.319Z,2.6760
2019-05-06T06:34:09.176Z,2.7081
2019-05-06T06:35:14.754Z,2.7642
2019-05-06T06:36:17.181Z,2.7214
2019-05-06T06:37:19.296Z,2.7909
2019-05-06T06:38:23.874Z,2.9030
2019-05-06T06:39:27.213Z,2.9885
2019-05-06T06:40:30.204Z,3.0446
2019-05-06T06:41:33.180Z,3.0312
2019-05-06T06:42:36.202Z,3.0873
2019-05-06T06:43:39.189Z,3.0873
2019-05-06T06:44:42.773Z,3.1434
2019-05-06T06:45:46.736Z,3.2128
2019-05-06T06:46:49.196Z,3.6240
2019-05-06T06:47:52.289Z,3.4985
2019-05-06T06:48:57.728Z,3.3837
2019-05-06T06:50:02.822Z,3.5813
2019-05-06T06:51:06.823Z,3.7923
2019-05-06T06:52:12.372Z,3.6934
2019-05-06T06:53:18.246Z,3.5813
2019-05-06T06:55:42.710Z,3.7789
2019-05-06T06:56:46.151Z,3.7655
2019-05-06T06:57:49.318Z,3.6801
2019-05-06T06:58:52.983Z,3.7228
2019-05-06T06:59:58.878Z,3.8911
2019-05-06T07:01:03.291Z,3.9471
2019-05-06T07:02:07.191Z,4.0753
2019-05-06T07:03:12.276Z,4.0887
2019-05-06T07:04:16.491Z,4.1020
2019-05-06T07:05:25.449Z,4.1447
2019-05-06T07:06:33.193Z,4.1447
2019-05-06T07:07:43.442Z,4.4305
2019-05-06T07:08:45.685Z,4.4865
2019-05-06T07:09:48.174Z,4.5426
2019-05-06T07:10:52.543Z,4.4999
2019-05-06T07:11:55.187Z,4.5426
2019-05-06T07:12:58.187Z,4.4144
2019-05-06T07:14:02.597Z,4.2435
2019-05-06T07:15:05.231Z,4.2889
2019-05-06T07:16:08.173Z,4.2008
2019-05-06T07:17:13.205Z,4.3877
2019-05-06T07:18:22.430Z,4.4865
2019-05-06T07:19:25.986Z,4.5693
2019-05-06T07:20:32.458Z,4.3317
2019-05-06T07:21:36.356Z,4.1314
2019-05-06T07:22:42.238Z,4.3023
2019-05-06T07:23:46.127Z,4.3156
2019-05-06T07:24:50.122Z,4.4572
2019-05-06T07:25:54.249Z,4.5560
2019-05-06T07:26:57.970Z,4.2435
2019-05-06T07:28:02.966Z,4.3450
2019-05-06T07:29:16.828Z,4.8230
2019-05-06T07:30:17.231Z,4.5426
2019-05-06T07:31:23.741Z,4.5827
2019-05-06T07:32:29.323Z,4.6681
2019-05-06T07:33:33.435Z,4.5693
2019-05-06T07:34:36.220Z,4.7108
2019-05-06T07:35:41.707Z,4.6414
2019-05-06T07:36:49.021Z,4.8657
2019-05-06T07:37:53.182Z,4.9352
2019-05-06T07:38:56.208Z,5.2770
2019-05-06T07:39:59.264Z,5.4879
2019-05-06T07:41:04.525Z,5.4158
2019-05-06T07:42:09.253Z,5.5867
2019-05-06T07:43:12.746Z,5.5867
2019-05-06T07:44:15.221Z,5.2342
2019-05-06T07:45:18.176Z,5.1648
2019-05-06T07:46:23.556Z,5.4879
2019-05-06T07:47:27.198Z,5.6855
2019-05-06T07:48:31.996Z,5.6001
2019-05-06T07:49:35.877Z,5.4719
2019-05-06T07:50:39.142Z,5.4585
2019-05-06T07:51:42.221Z,5.3891
2019-05-06T07:53:13.283Z,5.5306
2019-05-06T07:54:17.199Z,5.6134
2019-05-06T07:55:22.911Z,5.7816
2019-05-06T07:56:32.075Z,5.6268
2019-05-06T07:57:36.454Z,5.7977
2019-05-06T07:58:43.435Z,5.5440
2019-05-06T07:59:46.944Z,5.5440
2019-05-06T08:00:56.986Z,5.3330
2019-05-06T08:02:02.120Z,5.6428
2019-05-06T08:03:09.459Z,6.0380
2019-05-06T08:04:13.506Z,5.9552
2019-05-06T08:05:16.172Z,6.1101
2019-05-06T08:06:19.194Z,6.1502
2019-05-06T08:07:22.454Z,6.4332
2019-05-06T08:08:26.229Z,6.2650
2019-05-06T08:09:29.188Z,5.9392
2019-05-06T08:10:33.194Z,5.7122
2019-05-06T08:11:36.204Z,5.8110
2019-05-06T08:12:39.186Z,5.7816
2019-05-06T08:13:43.530Z,5.6989
2019-05-06T08:14:47.542Z,5.7683
2019-05-06T08:15:52.947Z,5.5707
2019-05-06T08:16:56.170Z,5.8991
2019-05-06T08:17:59.407Z,6.1929
2019-05-06T08:19:02.750Z,6.5454
2019-05-06T08:20:05.184Z,6.3344
2019-05-06T08:21:08.179Z,6.2917
2019-05-06T08:22:12.040Z,6.5160
2019-05-06T08:23:17.768Z,6.0246
2019-05-06T08:24:20.172Z,6.1368
2019-05-06T08:25:23.187Z,6.0807
2019-05-06T08:26:26.186Z,6.7163
2019-05-06T08:27:29.164Z,6.3210
2019-05-06T08:28:40.463Z,6.1502
2019-05-06T08:29:42.331Z,6.8151
2019-05-06T08:30:45.189Z,6.6602
2019-05-06T08:31:48.182Z,6.9833
2019-05-06T08:32:52.830Z,7.1809
2019-05-06T08:33:56.963Z,7.0554
2019-05-06T08:35:00.223Z,7.0394
2019-05-06T08:36:11.363Z,6.5587
2019-05-06T08:37:12.036Z,7.3491
2019-05-06T08:38:15.189Z,7.1675
2019-05-06T08:39:17.183Z,6.7884
2019-05-06T08:40:22.628Z,6.9699
2019-05-06T08:41:28.193Z,7.4372
2019-05-06T08:42:32.931Z,7.1942
2019-05-06T08:43:36.171Z,7.1248
2019-05-06T08:44:39.169Z,6.8444
2019-05-06T08:45:42.273Z,6.5908
2019-05-06T08:46:45.182Z,6.4198
2019-05-06T08:47:48.252Z,6.3478
2019-05-06T08:48:52.515Z,6.3478
2019-05-06T08:49:55.907Z,6.4599
2019-05-06T08:51:09.242Z,6.5587
2019-05-06T08:52:32.232Z,6.3478
2019-05-06T08:53:35.182Z,6.1795
2019-05-06T08:54:38.190Z,6.2089
2019-05-06T08:55:42.207Z,6.2222
2019-05-06T08:56:46.480Z,6.5454
2019-05-06T08:58:10.400Z,7.2530
2019-05-06T08:59:15.859Z,7.3091
2019-05-06T09:00:18.206Z,8.1128
2019-05-06T09:01:22.373Z,7.7176
2019-05-06T09:02:25.172Z,6.8151
2019-05-06T09:03:29.320Z,6.9005
2019-05-06T09:04:32.262Z,7.0821
2019-05-06T09:05:35.204Z,6.5587
2019-05-06T09:06:38.200Z,6.8151
2019-05-06T09:07:43.002Z,7.0687
2019-05-06T09:08:46.239Z,7.3091
2019-05-06T09:09:49.394Z,7.0394
2019-05-06T09:10:52.240Z,7.2236
2019-05-06T09:11:55.178Z,7.5227
2019-05-06T09:12:58.176Z,7.4079
2019-05-06T09:14:03.379Z,7.0821
2019-05-06T09:16:24.528Z,7.5628
2019-05-06T09:18:45.192Z,6.8711
2019-05-06T09:20:25.544Z,6.8872
2019-05-06T09:21:27.197Z,6.6175
2019-05-06T09:22:32.435Z,6.6602
2019-05-06T09:23:35.175Z,6.7590
2019-05-06T09:24:42.562Z,6.8578
2019-05-06T09:25:46.181Z,6.8872
2019-05-06T09:26:52.189Z,6.8578
2019-05-06T09:27:55.203Z,6.7590
2019-05-06T09:28:58.178Z,6.6896
2019-05-06T09:30:03.247Z,6.6735
2019-05-06T09:31:09.721Z,6.7590
2019-05-06T09:32:13.921Z,6.7884
2019-05-06T09:33:17.302Z,6.7456
2019-05-06T09:34:28.195Z,6.8444
2019-05-06T09:35:32.929Z,6.7163
2019-05-06T09:36:46.932Z,6.9139
2019-05-06T09:37:53.499Z,7.0127
2019-05-06T09:38:56.202Z,7.1382
2019-05-06T09:40:02.878Z,7.1675
2019-05-06T09:41:09.022Z,7.2103
2019-05-06T09:42:14.511Z,7.2236
2019-05-06T09:43:18.154Z,6.9993
2019-05-06T09:44:26.926Z,6.8017
2019-05-06T09:45:33.007Z,6.9272
2019-05-06T09:46:39.129Z,7.1115
2019-05-06T09:47:42.518Z,7.2530
2019-05-06T09:48:46.482Z,7.0554
2019-05-06T09:49:49.189Z,6.8872
2019-05-06T09:50:53.807Z,6.8872
2019-05-06T09:51:57.169Z,7.0821
2019-05-06T09:53:02.474Z,7.2370
2019-05-06T09:54:05.199Z,7.2797
2019-05-06T09:55:08.191Z,7.0687
2019-05-06T09:56:13.154Z,6.8444
2019-05-06T09:57:19.568Z,7.1809
2019-05-06T09:58:24.283Z,7.5788
2019-05-06T09:59:27.196Z,7.6349
2019-05-06T10:00:32.732Z,7.9446
2019-05-06T10:01:36.243Z,7.8164
2019-05-06T10:02:39.196Z,7.6055
2019-05-06T10:03:42.913Z,7.1248
2019-05-06T10:04:47.713Z,7.1942
2019-05-06T10:05:53.638Z,7.3224
2019-05-06T10:07:02.676Z,7.3812
2019-05-06T10:08:08.541Z,7.1809
2019-05-06T10:09:15.714Z,7.0127
2019-05-06T10:10:22.243Z,7.3224
2019-05-06T10:11:25.190Z,7.5921
2019-05-06T10:12:28.190Z,7.7897
2019-05-06T10:13:32.692Z,7.4506
2019-05-06T10:14:36.297Z,7.3812
2019-05-06T10:15:39.242Z,7.5921
2019-05-06T10:16:42.955Z,7.8885
2019-05-06T10:17:47.141Z,8.0434
2019-05-06T10:18:52.493Z,7.9286
2019-05-06T10:19:55.253Z,7.9152
2019-05-06T10:21:00.586Z,8.3398
2019-05-06T10:22:03.636Z,7.9019
2019-05-06T10:23:07.914Z,7.5067
2019-05-06T10:24:11.195Z,7.6616
2019-05-06T10:25:15.548Z,7.6482
2019-05-06T10:26:18.996Z,7.8164
2019-05-06T10:27:23.536Z,7.8031
2019-05-06T10:28:27.344Z,7.7043
2019-05-06T10:29:32.497Z,7.6909
2019-05-06T10:30:35.192Z,7.5361
2019-05-06T10:31:43.272Z,7.7176
2019-05-06T10:32:46.200Z,8.0007
2019-05-06T10:33:59.433Z,8.0140
2019-05-06T10:35:04.021Z,8.2277
2019-05-06T10:36:07.241Z,8.3959
2019-05-06T10:37:15.446Z,7.9446
2019-05-06T10:38:18.206Z,8.2143
2019-05-06T10:39:22.904Z,8.1262
2019-05-06T10:40:26.231Z,8.4386
2019-05-06T10:41:29.329Z,8.4813
2019-05-06T10:42:36.580Z,8.6069
2019-05-06T10:43:43.315Z,8.7617
2019-05-06T10:44:49.800Z,8.0007
2019-05-06T10:45:54.264Z,7.8031
2019-05-06T10:46:57.566Z,7.7043
2019-05-06T10:47:59.199Z,7.8031
2019-05-06T10:49:02.660Z,7.8031
2019-05-06T10:50:05.227Z,7.5921
2019-05-06T10:51:08.239Z,7.6215
2019-05-06T10:52:12.698Z,8.0140
2019-05-06T10:53:15.249Z,8.2837
2019-05-06T10:54:18.176Z,8.2837
2019-05-06T10:55:23.209Z,8.1128
2019-05-06T10:56:27.553Z,8.4386
2019-05-06T10:57:32.629Z,8.8766
2019-05-06T10:58:36.299Z,8.9166
2019-05-06T10:59:39.205Z,8.6229
2019-05-06T11:00:42.592Z,8.6790
2019-05-06T11:01:44.314Z,8.8766
2019-05-06T11:02:47.210Z,8.5508
2019-05-06T11:03:52.400Z,8.8899
2019-05-06T11:04:56.051Z,9.0181
2019-05-06T11:05:59.639Z,9.1035
2019-05-06T11:07:04.096Z,9.1863
2019-05-06T11:08:08.515Z,9.1730
2019-05-06T11:09:13.485Z,8.6496
2019-05-06T11:10:23.773Z,8.0007
2019-05-06T11:11:32.622Z,8.4119
2019-05-06T11:12:32.607Z,8.5107
2019-05-06T11:13:35.197Z,8.7484
2019-05-06T11:14:38.184Z,8.3131
2019-05-06T11:15:43.462Z,8.0995
2019-05-06T11:16:46.211Z,8.1262
2019-05-06T11:17:49.210Z,8.0274
2019-05-06T11:18:53.556Z,7.7737
2019-05-06T11:19:56.340Z,8.1262
2019-05-06T11:20:58.202Z,8.2143
2019-05-06T11:22:03.388Z,8.0274
2019-05-06T11:23:09.000Z,7.9286
2019-05-06T11:24:12.386Z,8.0274
2019-05-06T11:25:16.335Z,8.2277
2019-05-06T11:26:19.248Z,8.1556
2019-05-06T11:27:28.830Z,8.3398
2019-05-06T11:28:34.954Z,8.3825
2019-05-06T11:29:38.216Z,8.2143
2019-05-06T11:30:43.620Z,8.2010
2019-05-06T11:31:48.007Z,8.3558
2019-05-06T11:32:54.336Z,8.3692
2019-05-06T11:33:58.254Z,8.0995
2019-05-06T11:35:03.618Z,8.0434
2019-05-06T11:36:09.450Z,8.0007
2019-05-06T11:37:14.811Z,8.2971
2019-05-06T11:38:18.172Z,8.3825
2019-05-06T11:39:23.340Z,8.2704
2019-05-06T11:40:32.826Z,8.3692
2019-05-06T11:41:39.318Z,7.8458
2019-05-06T11:42:43.671Z,7.8592
2019-05-06T11:43:46.192Z,7.8325
2019-05-06T11:44:48.213Z,7.8725
2019-05-06T11:45:52.696Z,7.9446
2019-05-06T11:46:57.716Z,7.8725
2019-05-06T11:48:03.556Z,7.6616
2019-05-06T11:49:06.301Z,7.5788
2019-05-06T11:50:08.211Z,7.8725
2019-05-06T11:51:12.800Z,8.0568
2019-05-06T11:53:32.571Z,7.9713
2019-05-06T11:55:49.999Z,8.0701
2019-05-06T11:56:58.093Z,8.2010
2019-05-06T11:58:02.569Z,8.3131
2019-05-06T11:59:05.202Z,8.2143
2019-05-06T12:00:00.197Z,8.3398
2019-05-06T12:01:03.204Z,8.6069
2019-05-06T12:02:06.181Z,8.5668
2019-05-06T12:03:09.467Z,8.3558
2019-05-06T12:03:52.027Z,8.5241
2019-05-06T12:04:55.192Z,8.5935
2019-05-06T12:05:58.199Z,8.6629
2019-05-06T12:07:10.488Z,8.6229
2019-05-06T12:08:09.188Z,8.4947
2019-05-06T12:09:16.526Z,8.8178
2019-05-06T12:10:19.179Z,8.8338
2019-05-06T12:10:57.178Z,8.9166
2019-05-06T12:12:00.191Z,9.2718
2019-05-06T12:13:03.246Z,9.5522
2019-05-06T12:14:06.483Z,9.3011
2019-05-06T12:15:09.275Z,9.4827
2019-05-06T12:16:14.113Z,9.1169
2019-05-06T12:17:17.198Z,9.3278
2019-05-06T12:18:23.166Z,9.2157
2019-05-06T12:19:27.287Z,8.9754
2019-05-06T12:20:32.924Z,8.5935
2019-05-06T12:21:36.174Z,8.9326
2019-05-06T12:22:39.190Z,9.1863
2019-05-06T12:23:44.768Z,8.9754
2019-05-06T12:24:48.229Z,8.7778
2019-05-06T12:25:52.934Z,8.4520
2019-05-06T12:26:56.189Z,8.4680
2019-05-06T12:27:59.236Z,8.8605
2019-05-06T12:29:02.444Z,8.2010
2019-05-06T12:30:05.538Z,8.3558
2019-05-06T12:31:08.222Z,8.6229
2019-05-06T12:32:12.916Z,8.5508
2019-05-06T12:33:16.307Z,8.8045
2019-05-06T12:34:19.179Z,8.9326
2019-05-06T12:35:22.281Z,8.9033
2019-05-06T12:36:25.193Z,8.9487
2019-05-06T12:37:28.230Z,8.7217
2019-05-06T12:38:32.269Z,8.4947
2019-05-06T12:39:35.233Z,8.5107
2019-05-06T12:40:38.900Z,8.5802
2019-05-06T12:41:43.086Z,8.6069
2019-05-06T12:42:46.228Z,8.4253
2019-05-06T12:43:49.193Z,8.1262
2019-05-06T12:44:52.885Z,8.0835
2019-05-06T12:45:56.359Z,8.1556
2019-05-06T12:46:59.878Z,8.1395
2019-05-06T13:04:51.276Z,8.0568
2019-05-06T13:06:48.220Z,8.0274
2019-05-06T13:11:58.196Z,8.1849
2019-05-06T13:29:38.397Z,8.0701
2019-05-06T13:34:48.208Z,8.2410
2019-05-06T13:54:28.258Z,8.3558
2019-05-06T13:58:37.924Z,8.6069
2019-05-06T14:39:09.203Z,8.9033
2019-05-06T15:00:59.186Z,9.9794
2019-05-06T15:10:23.337Z,9.2718
2019-05-06T15:29:08.204Z,8.3265
2019-05-06T15:36:23.174Z,8.5508
2019-05-06T15:38:28.223Z,8.6069
2019-05-06T15:57:08.269Z,8.2570
2019-05-06T16:08:32.851Z,8.0835
2019-05-06T16:26:08.224Z,8.1689
2019-05-06T16:34:28.192Z,8.2143
2019-05-06T16:41:48.185Z,8.1556
2019-05-06T17:11:58.427Z,7.5494
2019-05-06T17:17:08.883Z,7.3091
2019-05-06T17:23:27.941Z,7.0554
2019-05-06T17:43:08.192Z,6.6175
2019-05-06T17:57:48.200Z,6.4599
2019-05-06T18:08:09.200Z,6.3611
2019-05-06T18:12:18.219Z,6.2490
2019-05-06T18:26:48.989Z,6.3344
2019-05-06T18:30:58.208Z,6.2089
2019-05-06T18:40:18.228Z,5.9953
2019-05-06T19:00:59.220Z,5.8991
2019-05-06T19:05:08.184Z,5.8831
2019-05-06T19:40:28.304Z,5.5867
2019-05-06T19:52:58.214Z,5.4025
2019-05-06T19:57:08.229Z,5.3464
2019-05-06T20:16:48.225Z,5.1488
2019-05-06T20:26:08.223Z,4.8924
2019-05-06T20:35:27.982Z,4.8791
2019-05-06T20:44:48.239Z,4.9218
2019-05-06T21:00:22.408Z,4.9218
2019-05-06T21:01:25.198Z,5.0793